Terminal Aerodrome Forecast
Issued by NWS Twin Cities, MN

Home | Current Version | Previous Version | Text Only | Print | Product List | Glossary Off
Versions: 1 2 3 4 5 6 7 8 9 10 11 12 13 14 15 16 17

927
FTUS43 KMPX 281048 AAC
TAFEAU
TAF AMD
KEAU 281048Z 2811/2906 00000KT 1/4SM FZFG VV001
      TEMPO 2812/2813 1 1/2SM BR BKN002
     FM281300 00000KT 2SM BR BKN003
     FM281400 04003KT 3SM BR SCT005
     FM281500 07006KT P6SM FEW200=

USA.gov is the U.S. government's official web portal to all federal, state and local government web resources and services.